sensor_id;sensor_type;location;lat;lon;timestamp;P1;durP1;ratioP1;P2;durP2;ratioP2
52304;SDS011;38248;52.722;6.734;2022-08-19T00:05:07;8.98;;;8.07;;
52304;SDS011;38248;52.722;6.734;2022-08-19T00:07:33;9.98;;;8.05;;
52304;SDS011;38248;52.722;6.734;2022-08-19T00:09:59;10.02;;;8.77;;
52304;SDS011;38248;52.722;6.734;2022-08-19T00:12:25;9.85;;;8.90;;
52304;SDS011;38248;52.722;6.734;2022-08-19T00:14:51;10.27;;;9.23;;
52304;SDS011;38248;52.722;6.734;2022-08-19T00:17:19;10.45;;;9.10;;
52304;SDS011;38248;52.722;6.734;2022-08-19T00:19:45;11.10;;;10.00;;
52304;SDS011;38248;52.722;6.734;2022-08-19T00:22:10;10.77;;;9.68;;
52304;SDS011;38248;52.722;6.734;2022-08-19T00:24:36;10.00;;;9.10;;
52304;SDS011;38248;52.722;6.734;2022-08-19T00:27:03;10.98;;;9.23;;
52304;SDS011;38248;52.722;6.734;2022-08-19T00:29:30;9.57;;;8.13;;
52304;SDS011;38248;52.722;6.734;2022-08-19T00:31:56;9.30;;;8.00;;
52304;SDS011;38248;52.722;6.734;2022-08-19T00:34:23;10.57;;;7.70;;
52304;SDS011;38248;52.722;6.734;2022-08-19T00:36:51;10.90;;;8.27;;
52304;SDS011;38248;52.722;6.734;2022-08-19T00:39:16;9.05;;;8.18;;
52304;SDS011;38248;52.722;6.734;2022-08-19T00:41:43;10.07;;;9.05;;
52304;SDS011;38248;52.722;6.734;2022-08-19T00:44:11;10.13;;;8.70;;
52304;SDS011;38248;52.722;6.734;2022-08-19T00:46:40;10.63;;;8.77;;
52304;SDS011;38248;52.722;6.734;2022-08-19T00:49:10;10.15;;;9.00;;
52304;SDS011;38248;52.722;6.734;2022-08-19T00:51:40;10.80;;;9.60;;
52304;SDS011;38248;52.722;6.734;2022-08-19T00:54:09;10.02;;;8.95;;
52304;SDS011;38248;52.722;6.734;2022-08-19T00:56:36;9.40;;;8.50;;
52304;SDS011;38248;52.722;6.734;2022-08-19T00:59:02;9.35;;;8.38;;
52304;SDS011;38248;52.722;6.734;2022-08-19T01:01:36;9.82;;;8.70;;
52304;SDS011;38248;52.722;6.734;2022-08-19T01:04:03;9.55;;;8.57;;
52304;SDS011;38248;52.722;6.734;2022-08-19T01:06:29;10.52;;;9.50;;
52304;SDS011;38248;52.722;6.734;2022-08-19T01:08:58;11.18;;;9.18;;
52304;SDS011;38248;52.722;6.734;2022-08-19T01:11:25;10.65;;;9.65;;
52304;SDS011;38248;52.722;6.734;2022-08-19T01:17:34;10.52;;;9.07;;
52304;SDS011;38248;52.722;6.734;2022-08-19T01:20:04;12.48;;;10.32;;
52304;SDS011;38248;52.722;6.734;2022-08-19T01:22:36;12.25;;;10.02;;
52304;SDS011;38248;52.722;6.734;2022-08-19T01:25:15;13.73;;;10.18;;
52304;SDS011;38248;52.722;6.734;2022-08-19T01:27:45;11.48;;;10.27;;
52304;SDS011;38248;52.722;6.734;2022-08-19T01:30:14;13.88;;;10.75;;
52304;SDS011;38248;52.722;6.734;2022-08-19T01:32:43;11.65;;;10.18;;
52304;SDS011;38248;52.722;6.734;2022-08-19T01:35:10;13.40;;;10.57;;
52304;SDS011;38248;52.722;6.734;2022-08-19T01:37:47;14.90;;;10.75;;
52304;SDS011;38248;52.722;6.734;2022-08-19T01:40:16;12.95;;;11.13;;
52304;SDS011;38248;52.722;6.734;2022-08-19T01:42:45;12.60;;;10.88;;
52304;SDS011;38248;52.722;6.734;2022-08-19T01:45:12;12.27;;;11.05;;
52304;SDS011;38248;52.722;6.734;2022-08-19T01:47:38;11.57;;;10.38;;
52304;SDS011;38248;52.722;6.734;2022-08-19T01:50:05;11.80;;;9.73;;
52304;SDS011;38248;52.722;6.734;2022-08-19T01:52:34;10.57;;;9.15;;
52304;SDS011;38248;52.722;6.734;2022-08-19T01:55:00;12.63;;;10.50;;
52304;SDS011;38248;52.722;6.734;2022-08-19T01:57:26;12.60;;;10.15;;
52304;SDS011;38248;52.722;6.734;2022-08-19T01:59:52;11.80;;;10.63;;
52304;SDS011;38248;52.722;6.734;2022-08-19T02:02:18;12.32;;;10.20;;
52304;SDS011;38248;52.722;6.734;2022-08-19T02:04:44;11.77;;;9.93;;
52304;SDS011;38248;52.722;6.734;2022-08-19T02:07:10;12.18;;;9.90;;
52304;SDS011;38248;52.722;6.734;2022-08-19T02:09:37;15.65;;;11.10;;
52304;SDS011;38248;52.722;6.734;2022-08-19T02:12:03;9.95;;;8.93;;
52304;SDS011;38248;52.722;6.734;2022-08-19T02:14:30;13.25;;;9.18;;
52304;SDS011;38248;52.722;6.734;2022-08-19T02:16:55;10.13;;;8.80;;
52304;SDS011;38248;52.722;6.734;2022-08-19T02:19:21;14.85;;;9.93;;
52304;SDS011;38248;52.722;6.734;2022-08-19T02:21:47;12.55;;;10.10;;
52304;SDS011;38248;52.722;6.734;2022-08-19T02:24:12;13.05;;;9.70;;
52304;SDS011;38248;52.722;6.734;2022-08-19T02:26:38;12.70;;;9.50;;
52304;SDS011;38248;52.722;6.734;2022-08-19T02:29:04;12.00;;;9.23;;
52304;SDS011;38248;52.722;6.734;2022-08-19T02:31:30;12.73;;;11.05;;
52304;SDS011;38248;52.722;6.734;2022-08-19T02:33:56;12.27;;;9.93;;
52304;SDS011;38248;52.722;6.734;2022-08-19T02:36:23;9.30;;;8.45;;
52304;SDS011;38248;52.722;6.734;2022-08-19T02:38:50;11.27;;;8.77;;
52304;SDS011;38248;52.722;6.734;2022-08-19T02:41:17;10.10;;;8.20;;
52304;SDS011;38248;52.722;6.734;2022-08-19T02:43:56;10.85;;;9.52;;
52304;SDS011;38248;52.722;6.734;2022-08-19T02:46:25;12.18;;;10.05;;
52304;SDS011;38248;52.722;6.734;2022-08-19T02:48:54;15.00;;;9.10;;
52304;SDS011;38248;52.722;6.734;2022-08-19T02:51:23;10.15;;;8.13;;
52304;SDS011;38248;52.722;6.734;2022-08-19T02:53:50;14.27;;;9.80;;
52304;SDS011;38248;52.722;6.734;2022-08-19T02:56:17;12.30;;;10.95;;
52304;SDS011;38248;52.722;6.734;2022-08-19T02:58:44;11.80;;;10.50;;
52304;SDS011;38248;52.722;6.734;2022-08-19T03:01:10;11.45;;;9.93;;
52304;SDS011;38248;52.722;6.734;2022-08-19T03:03:36;11.13;;;9.35;;
52304;SDS011;38248;52.722;6.734;2022-08-19T03:06:07;10.90;;;8.63;;
52304;SDS011;38248;52.722;6.734;2022-08-19T03:08:38;11.43;;;9.38;;
52304;SDS011;38248;52.722;6.734;2022-08-19T03:11:05;11.73;;;8.63;;
52304;SDS011;38248;52.722;6.734;2022-08-19T03:13:31;9.25;;;8.27;;
52304;SDS011;38248;52.722;6.734;2022-08-19T03:15:57;9.30;;;8.02;;
52304;SDS011;38248;52.722;6.734;2022-08-19T03:18:23;8.93;;;8.02;;
52304;SDS011;38248;52.722;6.734;2022-08-19T03:20:50;9.27;;;7.90;;
52304;SDS011;38248;52.722;6.734;2022-08-19T03:23:19;10.13;;;8.27;;
52304;SDS011;38248;52.722;6.734;2022-08-19T03:25:46;11.93;;;9.15;;
52304;SDS011;38248;52.722;6.734;2022-08-19T03:28:13;11.18;;;8.07;;
52304;SDS011;38248;52.722;6.734;2022-08-19T03:30:40;8.63;;;7.63;;
52304;SDS011;38248;52.722;6.734;2022-08-19T03:33:09;9.90;;;7.97;;
52304;SDS011;38248;52.722;6.734;2022-08-19T03:35:37;10.20;;;7.82;;
52304;SDS011;38248;52.722;6.734;2022-08-19T03:38:06;9.52;;;7.63;;
52304;SDS011;38248;52.722;6.734;2022-08-19T03:40:36;11.07;;;7.20;;
52304;SDS011;38248;52.722;6.734;2022-08-19T03:43:02;8.68;;;5.82;;
52304;SDS011;38248;52.722;6.734;2022-08-19T03:45:27;15.27;;;8.13;;
52304;SDS011;38248;52.722;6.734;2022-08-19T03:47:53;14.48;;;8.55;;
52304;SDS011;38248;52.722;6.734;2022-08-19T03:50:20;19.05;;;10.80;;
52304;SDS011;38248;52.722;6.734;2022-08-19T03:52:49;18.40;;;10.98;;
52304;SDS011;38248;52.722;6.734;2022-08-19T03:55:16;36.30;;;10.07;;
52304;SDS011;38248;52.722;6.734;2022-08-19T03:57:42;15.70;;;7.25;;
52304;SDS011;38248;52.722;6.734;2022-08-19T04:00:08;28.52;;;9.70;;
52304;SDS011;38248;52.722;6.734;2022-08-19T04:02:34;12.43;;;9.27;;
52304;SDS011;38248;52.722;6.734;2022-08-19T04:07:53;11.10;;;8.27;;
52304;SDS011;38248;52.722;6.734;2022-08-19T04:10:23;8.77;;;7.68;;
52304;SDS011;38248;52.722;6.734;2022-08-19T04:12:49;26.70;;;6.28;;
52304;SDS011;38248;52.722;6.734;2022-08-19T04:15:15;41.88;;;6.90;;
52304;SDS011;38248;52.722;6.734;2022-08-19T04:17:41;48.42;;;6.65;;
52304;SDS011;38248;52.722;6.734;2022-08-19T04:20:07;20.05;;;6.32;;
52304;SDS011;38248;52.722;6.734;2022-08-19T04:22:34;21.38;;;6.28;;
52304;SDS011;38248;52.722;6.734;2022-08-19T04:24:59;7.13;;;5.65;;
52304;SDS011;38248;52.722;6.734;2022-08-19T04:27:25;9.52;;;5.30;;
52304;SDS011;38248;52.722;6.734;2022-08-19T04:29:51;9.38;;;4.90;;
52304;SDS011;38248;52.722;6.734;2022-08-19T04:32:17;17.90;;;5.20;;
52304;SDS011;38248;52.722;6.734;2022-08-19T04:34:42;11.30;;;5.35;;
52304;SDS011;38248;52.722;6.734;2022-08-19T04:37:08;24.60;;;6.80;;
52304;SDS011;38248;52.722;6.734;2022-08-19T04:39:38;8.75;;;7.25;;
52304;SDS011;38248;52.722;6.734;2022-08-19T04:42:36;8.88;;;6.53;;
52304;SDS011;38248;52.722;6.734;2022-08-19T04:45:05;6.93;;;6.22;;
52304;SDS011;38248;52.722;6.734;2022-08-19T04:47:34;7.25;;;6.35;;
52304;SDS011;38248;52.722;6.734;2022-08-19T04:50:08;6.38;;;5.78;;
52304;SDS011;38248;52.722;6.734;2022-08-19T04:52:36;6.70;;;5.65;;
52304;SDS011;38248;52.722;6.734;2022-08-19T04:55:04;7.55;;;6.05;;
52304;SDS011;38248;52.722;6.734;2022-08-19T04:57:31;6.82;;;5.95;;
52304;SDS011;38248;52.722;6.734;2022-08-19T04:59:57;9.27;;;5.72;;
52304;SDS011;38248;52.722;6.734;2022-08-19T05:02:22;5.93;;;4.97;;
52304;SDS011;38248;52.722;6.734;2022-08-19T05:04:50;8.32;;;6.38;;
52304;SDS011;38248;52.722;6.734;2022-08-19T05:07:21;8.48;;;6.25;;
52304;SDS011;38248;52.722;6.734;2022-08-19T05:09:46;7.00;;;6.30;;
52304;SDS011;38248;52.722;6.734;2022-08-19T05:12:12;7.20;;;6.38;;
52304;SDS011;38248;52.722;6.734;2022-08-19T05:14:37;9.20;;;7.32;;
52304;SDS011;38248;52.722;6.734;2022-08-19T05:17:03;8.00;;;6.65;;
52304;SDS011;38248;52.722;6.734;2022-08-19T05:19:29;9.20;;;6.95;;
52304;SDS011;38248;52.722;6.734;2022-08-19T05:25:05;14.55;;;6.07;;
52304;SDS011;38248;52.722;6.734;2022-08-19T05:27:33;10.20;;;7.15;;
52304;SDS011;38248;52.722;6.734;2022-08-19T05:29:59;10.80;;;7.20;;
52304;SDS011;38248;52.722;6.734;2022-08-19T05:32:25;8.98;;;7.63;;
52304;SDS011;38248;52.722;6.734;2022-08-19T05:34:51;14.23;;;9.00;;
52304;SDS011;38248;52.722;6.734;2022-08-19T05:37:16;13.80;;;9.73;;
52304;SDS011;38248;52.722;6.734;2022-08-19T05:39:42;12.15;;;9.13;;
52304;SDS011;38248;52.722;6.734;2022-08-19T05:42:08;10.82;;;9.63;;
52304;SDS011;38248;52.722;6.734;2022-08-19T05:48:17;10.20;;;9.20;;
52304;SDS011;38248;52.722;6.734;2022-08-19T05:50:45;11.73;;;10.52;;
52304;SDS011;38248;52.722;6.734;2022-08-19T05:53:11;13.93;;;11.32;;
52304;SDS011;38248;52.722;6.734;2022-08-19T05:55:38;13.90;;;12.45;;
52304;SDS011;38248;52.722;6.734;2022-08-19T05:58:03;16.35;;;12.48;;
52304;SDS011;38248;52.722;6.734;2022-08-19T06:00:42;13.80;;;11.70;;
52304;SDS011;38248;52.722;6.734;2022-08-19T06:03:08;11.85;;;10.20;;
52304;SDS011;38248;52.722;6.734;2022-08-19T06:05:34;14.02;;;11.23;;
52304;SDS011;38248;52.722;6.734;2022-08-19T06:11:39;15.13;;;12.07;;
52304;SDS011;38248;52.722;6.734;2022-08-19T06:14:13;21.35;;;15.88;;
52304;SDS011;38248;52.722;6.734;2022-08-19T06:16:42;21.67;;;16.88;;
52304;SDS011;38248;52.722;6.734;2022-08-19T06:19:09;23.23;;;16.70;;
52304;SDS011;38248;52.722;6.734;2022-08-19T06:21:38;27.33;;;19.45;;
52304;SDS011;38248;52.722;6.734;2022-08-19T06:24:06;25.95;;;19.40;;
52304;SDS011;38248;52.722;6.734;2022-08-19T06:26:33;28.63;;;20.25;;
52304;SDS011;38248;52.722;6.734;2022-08-19T06:29:00;29.15;;;20.40;;
52304;SDS011;38248;52.722;6.734;2022-08-19T06:31:27;28.48;;;20.13;;
52304;SDS011;38248;52.722;6.734;2022-08-19T06:33:53;29.77;;;22.08;;
52304;SDS011;38248;52.722;6.734;2022-08-19T06:36:26;32.75;;;21.52;;
52304;SDS011;38248;52.722;6.734;2022-08-19T06:38:56;28.10;;;21.25;;
52304;SDS011;38248;52.722;6.734;2022-08-19T06:47:37;33.50;;;23.52;;
52304;SDS011;38248;52.722;6.734;2022-08-19T06:50:03;29.80;;;22.33;;
52304;SDS011;38248;52.722;6.734;2022-08-19T07:04:53;31.33;;;23.05;;
52304;SDS011;38248;52.722;6.734;2022-08-19T07:07:19;29.77;;;23.00;;
52304;SDS011;38248;52.722;6.734;2022-08-19T07:16:27;22.27;;;17.90;;
52304;SDS011;38248;52.722;6.734;2022-08-19T07:18:54;21.17;;;18.52;;
52304;SDS011;38248;52.722;6.734;2022-08-19T07:21:25;20.52;;;17.88;;
52304;SDS011;38248;52.722;6.734;2022-08-19T07:27:24;21.80;;;19.23;;
52304;SDS011;38248;52.722;6.734;2022-08-19T07:29:50;20.95;;;18.25;;
52304;SDS011;38248;52.722;6.734;2022-08-19T07:36:04;20.63;;;18.00;;
52304;SDS011;38248;52.722;6.734;2022-08-19T08:01:17;20.05;;;17.98;;
52304;SDS011;38248;52.722;6.734;2022-08-19T08:03:44;17.33;;;15.52;;
52304;SDS011;38248;52.722;6.734;2022-08-19T08:06:29;22.10;;;18.50;;
52304;SDS011;38248;52.722;6.734;2022-08-19T08:09:35;17.88;;;16.17;;
52304;SDS011;38248;52.722;6.734;2022-08-19T08:15:49;18.15;;;16.35;;
52304;SDS011;38248;52.722;6.734;2022-08-19T08:25:45;16.38;;;14.70;;
52304;SDS011;38248;52.722;6.734;2022-08-19T08:38:46;13.00;;;11.70;;
52304;SDS011;38248;52.722;6.734;2022-08-19T08:44:15;13.82;;;12.32;;
52304;SDS011;38248;52.722;6.734;2022-08-19T08:46:48;15.30;;;13.70;;
52304;SDS011;38248;52.722;6.734;2022-08-19T08:59:53;14.80;;;13.27;;
52304;SDS011;38248;52.722;6.734;2022-08-19T09:12:54;16.05;;;14.38;;
52304;SDS011;38248;52.722;6.734;2022-08-19T09:15:35;17.13;;;15.13;;
52304;SDS011;38248;52.722;6.734;2022-08-19T09:18:05;16.02;;;14.40;;
52304;SDS011;38248;52.722;6.734;2022-08-19T09:20:31;17.30;;;14.85;;
52304;SDS011;38248;52.722;6.734;2022-08-19T09:22:57;16.73;;;15.10;;
52304;SDS011;38248;52.722;6.734;2022-08-19T09:25:29;17.40;;;15.57;;
52304;SDS011;38248;52.722;6.734;2022-08-19T09:28:11;16.05;;;14.32;;
52304;SDS011;38248;52.722;6.734;2022-08-19T09:30:40;15.10;;;13.60;;
52304;SDS011;38248;52.722;6.734;2022-08-19T09:33:06;16.70;;;15.00;;
52304;SDS011;38248;52.722;6.734;2022-08-19T09:35:33;19.25;;;16.33;;
52304;SDS011;38248;52.722;6.734;2022-08-19T09:38:00;15.73;;;14.13;;
52304;SDS011;38248;52.722;6.734;2022-08-19T09:40:26;17.50;;;15.75;;
52304;SDS011;38248;52.722;6.734;2022-08-19T09:42:53;17.60;;;15.80;;
52304;SDS011;38248;52.722;6.734;2022-08-19T09:45:22;17.10;;;15.40;;
52304;SDS011;38248;52.722;6.734;2022-08-19T09:47:51;16.48;;;14.77;;
52304;SDS011;38248;52.722;6.734;2022-08-19T09:50:17;15.73;;;14.13;;
52304;SDS011;38248;52.722;6.734;2022-08-19T09:53:00;14.55;;;13.05;;
52304;SDS011;38248;52.722;6.734;2022-08-19T10:00:36;15.48;;;13.80;;
52304;SDS011;38248;52.722;6.734;2022-08-19T10:03:03;14.57;;;13.15;;
52304;SDS011;38248;52.722;6.734;2022-08-19T10:05:29;14.52;;;13.02;;
52304;SDS011;38248;52.722;6.734;2022-08-19T10:08:22;15.65;;;13.20;;
52304;SDS011;38248;52.722;6.734;2022-08-19T10:13:17;16.08;;;14.38;;
52304;SDS011;38248;52.722;6.734;2022-08-19T10:15:48;17.13;;;15.43;;
52304;SDS011;38248;52.722;6.734;2022-08-19T10:18:16;15.98;;;14.13;;
52304;SDS011;38248;52.722;6.734;2022-08-19T10:20:44;13.35;;;12.05;;
52304;SDS011;38248;52.722;6.734;2022-08-19T10:23:18;13.50;;;12.23;;
52304;SDS011;38248;52.722;6.734;2022-08-19T10:25:46;17.65;;;15.98;;
52304;SDS011;38248;52.722;6.734;2022-08-19T10:28:12;17.33;;;15.52;;
52304;SDS011;38248;52.722;6.734;2022-08-19T10:30:38;16.40;;;14.80;;
52304;SDS011;38248;52.722;6.734;2022-08-19T10:35:59;10.70;;;9.63;;
52304;SDS011;38248;52.722;6.734;2022-08-19T10:38:26;11.60;;;10.10;;
52304;SDS011;38248;52.722;6.734;2022-08-19T10:40:54;11.45;;;9.60;;
52304;SDS011;38248;52.722;6.734;2022-08-19T10:43:19;14.43;;;11.68;;
52304;SDS011;38248;52.722;6.734;2022-08-19T10:46:01;12.07;;;10.77;;
52304;SDS011;38248;52.722;6.734;2022-08-19T10:48:27;11.70;;;10.50;;
52304;SDS011;38248;52.722;6.734;2022-08-19T10:50:52;9.40;;;8.50;;
52304;SDS011;38248;52.722;6.734;2022-08-19T10:53:58;14.30;;;13.00;;
52304;SDS011;38248;52.722;6.734;2022-08-19T10:59:25;13.75;;;12.32;;
52304;SDS011;38248;52.722;6.734;2022-08-19T11:01:54;13.43;;;12.13;;
52304;SDS011;38248;52.722;6.734;2022-08-19T11:04:24;11.77;;;10.57;;
52304;SDS011;38248;52.722;6.734;2022-08-19T11:07:09;12.98;;;11.77;;
52304;SDS011;38248;52.722;6.734;2022-08-19T11:09:40;12.75;;;10.73;;
52304;SDS011;38248;52.722;6.734;2022-08-19T11:12:07;12.52;;;11.32;;
52304;SDS011;38248;52.722;6.734;2022-08-19T11:14:39;11.23;;;10.13;;
52304;SDS011;38248;52.722;6.734;2022-08-19T11:17:05;9.75;;;8.85;;
52304;SDS011;38248;52.722;6.734;2022-08-19T11:19:31;8.60;;;7.75;;
52304;SDS011;38248;52.722;6.734;2022-08-19T11:21:58;9.82;;;8.75;;
52304;SDS011;38248;52.722;6.734;2022-08-19T11:24:27;9.30;;;8.48;;
52304;SDS011;38248;52.722;6.734;2022-08-19T11:32:33;8.50;;;7.80;;
52304;SDS011;38248;52.722;6.734;2022-08-19T11:34:59;7.82;;;7.03;;
52304;SDS011;38248;52.722;6.734;2022-08-19T11:37:31;7.18;;;6.47;;
52304;SDS011;38248;52.722;6.734;2022-08-19T11:40:03;6.85;;;6.15;;
52304;SDS011;38248;52.722;6.734;2022-08-19T11:42:30;8.02;;;7.13;;
52304;SDS011;38248;52.722;6.734;2022-08-19T11:45:18;9.18;;;8.27;;
52304;SDS011;38248;52.722;6.734;2022-08-19T11:47:44;8.48;;;7.65;;
52304;SDS011;38248;52.722;6.734;2022-08-19T11:50:11;9.45;;;8.27;;
52304;SDS011;38248;52.722;6.734;2022-08-19T11:52:36;10.73;;;8.93;;
52304;SDS011;38248;52.722;6.734;2022-08-19T11:55:02;9.30;;;8.30;;
52304;SDS011;38248;52.722;6.734;2022-08-19T11:57:29;12.05;;;10.57;;
52304;SDS011;38248;52.722;6.734;2022-08-19T11:59:57;9.48;;;8.50;;
52304;SDS011;38248;52.722;6.734;2022-08-19T12:02:22;12.30;;;8.52;;
52304;SDS011;38248;52.722;6.734;2022-08-19T12:04:48;8.13;;;7.32;;
52304;SDS011;38248;52.722;6.734;2022-08-19T12:07:14;11.75;;;8.50;;
52304;SDS011;38248;52.722;6.734;2022-08-19T12:09:40;9.13;;;7.30;;
52304;SDS011;38248;52.722;6.734;2022-08-19T12:12:07;6.90;;;6.20;;
52304;SDS011;38248;52.722;6.734;2022-08-19T12:14:34;8.48;;;7.00;;
52304;SDS011;38248;52.722;6.734;2022-08-19T12:17:00;7.70;;;7.07;;
52304;SDS011;38248;52.722;6.734;2022-08-19T12:19:27;8.65;;;7.75;;
52304;SDS011;38248;52.722;6.734;2022-08-19T12:21:58;7.38;;;6.68;;
52304;SDS011;38248;52.722;6.734;2022-08-19T12:24:26;7.25;;;6.55;;
52304;SDS011;38248;52.722;6.734;2022-08-19T12:26:52;6.93;;;6.30;;
52304;SDS011;38248;52.722;6.734;2022-08-19T12:29:18;7.72;;;7.03;;
52304;SDS011;38248;52.722;6.734;2022-08-19T12:31:44;7.63;;;6.82;;
52304;SDS011;38248;52.722;6.734;2022-08-19T12:37:52;4.95;;;4.53;;
52304;SDS011;38248;52.722;6.734;2022-08-19T12:40:17;5.10;;;4.60;;
52304;SDS011;38248;52.722;6.734;2022-08-19T12:45:32;8.77;;;5.65;;
52304;SDS011;38248;52.722;6.734;2022-08-19T12:47:58;4.55;;;4.15;;
52304;SDS011;38248;52.722;6.734;2022-08-19T12:50:24;6.47;;;5.97;;
52304;SDS011;38248;52.722;6.734;2022-08-19T12:52:50;7.25;;;6.35;;
52304;SDS011;38248;52.722;6.734;2022-08-19T12:55:15;6.82;;;6.20;;
52304;SDS011;38248;52.722;6.734;2022-08-19T12:57:43;7.97;;;6.05;;
52304;SDS011;38248;52.722;6.734;2022-08-19T13:00:11;6.93;;;6.22;;
52304;SDS011;38248;52.722;6.734;2022-08-19T13:05:31;6.18;;;5.57;;
52304;SDS011;38248;52.722;6.734;2022-08-19T13:08:01;7.82;;;7.15;;
52304;SDS011;38248;52.722;6.734;2022-08-19T13:10:28;7.28;;;6.57;;
52304;SDS011;38248;52.722;6.734;2022-08-19T13:13:07;6.75;;;6.05;;
52304;SDS011;38248;52.722;6.734;2022-08-19T13:15:35;7.18;;;6.47;;
52304;SDS011;38248;52.722;6.734;2022-08-19T13:18:04;6.22;;;5.63;;
52304;SDS011;38248;52.722;6.734;2022-08-19T13:20:31;6.70;;;6.10;;
52304;SDS011;38248;52.722;6.734;2022-08-19T13:22:56;7.25;;;6.10;;
52304;SDS011;38248;52.722;6.734;2022-08-19T13:25:22;5.82;;;5.32;;
52304;SDS011;38248;52.722;6.734;2022-08-19T13:27:48;6.15;;;4.90;;
52304;SDS011;38248;52.722;6.734;2022-08-19T13:30:15;5.20;;;4.60;;
52304;SDS011;38248;52.722;6.734;2022-08-19T13:33:01;6.90;;;6.30;;
52304;SDS011;38248;52.722;6.734;2022-08-19T13:36:04;7.53;;;6.80;;
52304;SDS011;38248;52.722;6.734;2022-08-19T13:38:32;8.32;;;7.63;;
52304;SDS011;38248;52.722;6.734;2022-08-19T13:41:03;7.70;;;6.90;;
52304;SDS011;38248;52.722;6.734;2022-08-19T13:43:32;7.93;;;7.22;;
52304;SDS011;38248;52.722;6.734;2022-08-19T13:45:58;7.85;;;7.15;;
52304;SDS011;38248;52.722;6.734;2022-08-19T13:48:24;9.40;;;7.72;;
52304;SDS011;38248;52.722;6.734;2022-08-19T13:56:20;6.00;;;5.50;;
52304;SDS011;38248;52.722;6.734;2022-08-19T13:58:45;6.13;;;4.93;;
52304;SDS011;38248;52.722;6.734;2022-08-19T14:01:11;5.55;;;5.05;;
52304;SDS011;38248;52.722;6.734;2022-08-19T14:03:37;4.82;;;4.35;;
52304;SDS011;38248;52.722;6.734;2022-08-19T14:06:03;3.88;;;3.20;;
52304;SDS011;38248;52.722;6.734;2022-08-19T14:08:29;5.35;;;4.22;;
52304;SDS011;38248;52.722;6.734;2022-08-19T14:14:38;5.70;;;5.10;;
52304;SDS011;38248;52.722;6.734;2022-08-19T14:17:08;7.65;;;6.65;;
52304;SDS011;38248;52.722;6.734;2022-08-19T14:19:34;7.80;;;6.55;;
52304;SDS011;38248;52.722;6.734;2022-08-19T14:22:00;9.13;;;7.55;;
52304;SDS011;38248;52.722;6.734;2022-08-19T14:24:26;8.38;;;7.38;;
52304;SDS011;38248;52.722;6.734;2022-08-19T14:29:23;7.95;;;7.15;;
52304;SDS011;38248;52.722;6.734;2022-08-19T14:35:32;8.80;;;6.38;;
52304;SDS011;38248;52.722;6.734;2022-08-19T14:41:14;8.02;;;4.75;;
52304;SDS011;38248;52.722;6.734;2022-08-19T14:47:26;9.90;;;6.10;;
52304;SDS011;38248;52.722;6.734;2022-08-19T14:52:45;8.07;;;5.90;;
52304;SDS011;38248;52.722;6.734;2022-08-19T15:02:36;7.88;;;5.70;;
52304;SDS011;38248;52.722;6.734;2022-08-19T15:05:02;9.32;;;8.10;;
52304;SDS011;38248;52.722;6.734;2022-08-19T15:07:28;14.68;;;11.15;;
52304;SDS011;38248;52.722;6.734;2022-08-19T15:09:54;12.32;;;11.00;;
52304;SDS011;38248;52.722;6.734;2022-08-19T15:12:20;13.95;;;11.40;;
52304;SDS011;38248;52.722;6.734;2022-08-19T15:14:47;13.80;;;11.30;;
52304;SDS011;38248;52.722;6.734;2022-08-19T15:17:15;14.05;;;12.60;;
52304;SDS011;38248;52.722;6.734;2022-08-19T15:19:41;14.00;;;12.32;;
52304;SDS011;38248;52.722;6.734;2022-08-19T15:22:07;13.55;;;12.15;;
52304;SDS011;38248;52.722;6.734;2022-08-19T15:24:33;13.73;;;12.32;;
52304;SDS011;38248;52.722;6.734;2022-08-19T15:27:00;16.13;;;12.82;;
52304;SDS011;38248;52.722;6.734;2022-08-19T15:29:26;13.63;;;12.30;;
52304;SDS011;38248;52.722;6.734;2022-08-19T15:31:52;17.05;;;13.52;;
52304;SDS011;38248;52.722;6.734;2022-08-19T15:34:20;14.77;;;13.38;;
52304;SDS011;38248;52.722;6.734;2022-08-19T15:36:47;14.95;;;13.35;;
52304;SDS011;38248;52.722;6.734;2022-08-19T15:39:13;15.82;;;13.88;;
52304;SDS011;38248;52.722;6.734;2022-08-19T15:41:38;16.42;;;13.50;;
52304;SDS011;38248;52.722;6.734;2022-08-19T15:44:11;17.40;;;14.38;;
52304;SDS011;38248;52.722;6.734;2022-08-19T15:46:42;19.05;;;14.80;;
52304;SDS011;38248;52.722;6.734;2022-08-19T15:49:10;17.90;;;15.10;;
52304;SDS011;38248;52.722;6.734;2022-08-19T15:54:21;18.98;;;13.82;;
52304;SDS011;38248;52.722;6.734;2022-08-19T15:56:47;15.32;;;13.55;;
52304;SDS011;38248;52.722;6.734;2022-08-19T15:59:33;20.15;;;13.88;;
52304;SDS011;38248;52.722;6.734;2022-08-19T16:02:19;15.63;;;12.88;;
52304;SDS011;38248;52.722;6.734;2022-08-19T16:05:07;12.43;;;10.95;;
52304;SDS011;38248;52.722;6.734;2022-08-19T16:08:05;13.55;;;12.25;;
52304;SDS011;38248;52.722;6.734;2022-08-19T16:13:26;13.90;;;10.93;;
52304;SDS011;38248;52.722;6.734;2022-08-19T16:15:51;13.70;;;12.23;;
52304;SDS011;38248;52.722;6.734;2022-08-19T16:18:20;13.60;;;11.30;;
52304;SDS011;38248;52.722;6.734;2022-08-19T16:20:46;15.38;;;10.02;;
52304;SDS011;38248;52.722;6.734;2022-08-19T16:23:12;15.68;;;12.38;;
52304;SDS011;38248;52.722;6.734;2022-08-19T16:25:38;16.85;;;12.60;;
52304;SDS011;38248;52.722;6.734;2022-08-19T16:28:03;16.02;;;12.65;;
52304;SDS011;38248;52.722;6.734;2022-08-19T16:30:29;17.15;;;13.00;;
52304;SDS011;38248;52.722;6.734;2022-08-19T16:32:54;18.30;;;13.57;;
52304;SDS011;38248;52.722;6.734;2022-08-19T16:35:20;16.98;;;13.18;;
52304;SDS011;38248;52.722;6.734;2022-08-19T16:37:46;14.32;;;12.43;;
52304;SDS011;38248;52.722;6.734;2022-08-19T16:40:12;14.80;;;11.70;;
52304;SDS011;38248;52.722;6.734;2022-08-19T16:42:38;14.88;;;11.38;;
52304;SDS011;38248;52.722;6.734;2022-08-19T16:48:49;13.98;;;10.85;;
52304;SDS011;38248;52.722;6.734;2022-08-19T16:58:38;13.68;;;10.00;;
52304;SDS011;38248;52.722;6.734;2022-08-19T17:01:05;12.80;;;9.70;;
52304;SDS011;38248;52.722;6.734;2022-08-19T17:03:33;11.95;;;9.20;;
52304;SDS011;38248;52.722;6.734;2022-08-19T17:06:02;12.52;;;9.32;;
52304;SDS011;38248;52.722;6.734;2022-08-19T17:12:32;11.25;;;9.98;;
52304;SDS011;38248;52.722;6.734;2022-08-19T17:18:50;16.13;;;11.30;;
52304;SDS011;38248;52.722;6.734;2022-08-19T17:25:02;14.68;;;10.90;;
52304;SDS011;38248;52.722;6.734;2022-08-19T17:49:02;11.82;;;9.88;;
52304;SDS011;38248;52.722;6.734;2022-08-19T19:07:37;11.52;;;10.45;;
52304;SDS011;38248;52.722;6.734;2022-08-19T19:10:04;16.33;;;11.95;;
52304;SDS011;38248;52.722;6.734;2022-08-19T19:12:30;11.85;;;10.75;;
52304;SDS011;38248;52.722;6.734;2022-08-19T19:14:58;15.70;;;12.88;;
52304;SDS011;38248;52.722;6.734;2022-08-19T19:17:26;17.00;;;13.43;;
52304;SDS011;38248;52.722;6.734;2022-08-19T19:19:52;16.42;;;14.50;;
52304;SDS011;38248;52.722;6.734;2022-08-19T19:22:18;18.15;;;15.52;;
52304;SDS011;38248;52.722;6.734;2022-08-19T19:24:45;17.50;;;15.65;;
52304;SDS011;38248;52.722;6.734;2022-08-19T19:27:11;18.30;;;16.60;;
52304;SDS011;38248;52.722;6.734;2022-08-19T19:29:39;16.25;;;14.63;;
52304;SDS011;38248;52.722;6.734;2022-08-19T19:32:14;15.40;;;13.93;;
52304;SDS011;38248;52.722;6.734;2022-08-19T19:34:42;14.50;;;13.00;;
52304;SDS011;38248;52.722;6.734;2022-08-19T19:37:08;15.73;;;13.00;;
52304;SDS011;38248;52.722;6.734;2022-08-19T19:39:33;13.48;;;12.05;;
52304;SDS011;38248;52.722;6.734;2022-08-19T19:41:59;14.20;;;12.70;;
52304;SDS011;38248;52.722;6.734;2022-08-19T19:44:25;11.00;;;9.93;;
52304;SDS011;38248;52.722;6.734;2022-08-19T19:46:51;10.95;;;9.95;;
52304;SDS011;38248;52.722;6.734;2022-08-19T19:49:19;10.57;;;9.45;;